sensor_id;sensor_type;location;lat;lon;timestamp;temperature;humidity
73875;HTU21D;62209;47.568;7.558;2023-04-23T00:04:32;12.31;97.10
73875;HTU21D;62209;47.568;7.558;2023-04-23T00:19:42;12.27;96.65
73875;HTU21D;62209;47.568;7.558;2023-04-23T00:34:48;12.12;98.58
73875;HTU21D;62209;47.568;7.558;2023-04-23T00:49:54;12.01;99.09
73875;HTU21D;62209;47.568;7.558;2023-04-23T01:05:00;11.85;100.35
73875;HTU21D;62209;47.568;7.558;2023-04-23T01:20:09;11.82;100.31
73875;HTU21D;62209;47.568;7.558;2023-04-23T01:35:15;11.72;100.70
73875;HTU21D;62209;47.568;7.558;2023-04-23T01:50:21;11.64;101.37
73875;HTU21D;62209;47.568;7.558;2023-04-23T02:05:28;11.34;104.68
73875;HTU21D;62209;47.568;7.558;2023-04-23T02:20:38;11.41;104.05
73875;HTU21D;62209;47.568;7.558;2023-04-23T02:35:43;11.34;104.39
73875;HTU21D;62209;47.568;7.558;2023-04-23T02:50:49;11.25;105.27
73875;HTU21D;62209;47.568;7.558;2023-04-23T03:05:54;11.29;104.70
73875;HTU21D;62209;47.568;7.558;2023-04-23T03:21:00;11.20;104.61
73875;HTU21D;62209;47.568;7.558;2023-04-23T03:36:06;11.26;103.84
73875;HTU21D;62209;47.568;7.558;2023-04-23T03:51:12;11.28;103.03
73875;HTU21D;62209;47.568;7.558;2023-04-23T04:06:18;11.24;102.80
73875;HTU21D;62209;47.568;7.558;2023-04-23T04:21:23;11.24;103.40
73875;HTU21D;62209;47.568;7.558;2023-04-23T04:36:30;11.27;103.28
73875;HTU21D;62209;47.568;7.558;2023-04-23T04:51:37;11.29;104.38
73875;HTU21D;62209;47.568;7.558;2023-04-23T05:06:44;11.40;103.82
73875;HTU21D;62209;47.568;7.558;2023-04-23T05:21:50;11.44;103.77
73875;HTU21D;62209;47.568;7.558;2023-04-23T05:36:55;11.52;103.90
73875;HTU21D;62209;47.568;7.558;2023-04-23T05:52:01;11.83;103.30
73875;HTU21D;62209;47.568;7.558;2023-04-23T06:07:07;11.89;103.44
73875;HTU21D;62209;47.568;7.558;2023-04-23T06:22:13;12.03;102.77
73875;HTU21D;62209;47.568;7.558;2023-04-23T06:37:18;14.00;96.97
73875;HTU21D;62209;47.568;7.558;2023-04-23T06:52:24;13.80;96.91
73875;HTU21D;62209;47.568;7.558;2023-04-23T07:07:30;14.73;92.81
73875;HTU21D;62209;47.568;7.558;2023-04-23T07:22:38;16.46;88.77
73875;HTU21D;62209;47.568;7.558;2023-04-23T07:37:44;17.04;85.86
73875;HTU21D;62209;47.568;7.558;2023-04-23T07:52:50;18.51;80.97
73875;HTU21D;62209;47.568;7.558;2023-04-23T08:07:56;19.33;77.08
73875;HTU21D;62209;47.568;7.558;2023-04-23T08:23:01;19.47;75.94
73875;HTU21D;62209;47.568;7.558;2023-04-23T08:38:08;19.36;75.80
73875;HTU21D;62209;47.568;7.558;2023-04-23T08:53:15;19.57;74.09
73875;HTU21D;62209;47.568;7.558;2023-04-23T09:08:22;18.72;75.79
73875;HTU21D;62209;47.568;7.558;2023-04-23T09:23:28;19.92;74.09
73875;HTU21D;62209;47.568;7.558;2023-04-23T09:38:34;20.16;73.27
73875;HTU21D;62209;47.568;7.558;2023-04-23T09:53:41;20.13;74.31
73875;HTU21D;62209;47.568;7.558;2023-04-23T10:08:48;21.22;71.58
73875;HTU21D;62209;47.568;7.558;2023-04-23T10:23:54;21.51;71.72
73875;HTU21D;62209;47.568;7.558;2023-04-23T10:39:02;23.18;70.73
73875;HTU21D;62209;47.568;7.558;2023-04-23T10:54:11;21.64;69.00
73875;HTU21D;62209;47.568;7.558;2023-04-23T11:09:37;22.16;68.30
73875;HTU21D;62209;47.568;7.558;2023-04-23T11:24:44;21.33;67.03
73875;HTU21D;62209;47.568;7.558;2023-04-23T11:39:53;21.61;68.04
73875;HTU21D;62209;47.568;7.558;2023-04-23T11:55:02;22.19;71.01
73875;HTU21D;62209;47.568;7.558;2023-04-23T12:10:11;22.50;68.21
73875;HTU21D;62209;47.568;7.558;2023-04-23T12:25:22;23.08;68.13
73875;HTU21D;62209;47.568;7.558;2023-04-23T12:40:29;23.56;65.43
73875;HTU21D;62209;47.568;7.558;2023-04-23T12:55:34;23.28;61.99
73875;HTU21D;62209;47.568;7.558;2023-04-23T13:10:41;23.16;62.66
73875;HTU21D;62209;47.568;7.558;2023-04-23T13:25:48;20.00;68.61
73875;HTU21D;62209;47.568;7.558;2023-04-23T13:40:53;22.02;66.90
73875;HTU21D;62209;47.568;7.558;2023-04-23T13:55:59;20.61;67.71
73875;HTU21D;62209;47.568;7.558;2023-04-23T14:11:04;21.13;73.44
73875;HTU21D;62209;47.568;7.558;2023-04-23T14:26:10;21.44;75.35
73875;HTU21D;62209;47.568;7.558;2023-04-23T14:41:39;20.68;65.78
73875;HTU21D;62209;47.568;7.558;2023-04-23T14:56:45;19.32;66.28
73875;HTU21D;62209;47.568;7.558;2023-04-23T15:11:51;18.84;68.08
73875;HTU21D;62209;47.568;7.558;2023-04-23T15:26:56;18.27;67.59
73875;HTU21D;62209;47.568;7.558;2023-04-23T15:42:03;18.10;67.69
73875;HTU21D;62209;47.568;7.558;2023-04-23T15:57:09;18.49;68.93
73875;HTU21D;62209;47.568;7.558;2023-04-23T16:12:14;18.62;69.47
73875;HTU21D;62209;47.568;7.558;2023-04-23T16:27:20;18.12;71.16
73875;HTU21D;62209;47.568;7.558;2023-04-23T16:42:26;18.05;73.47
73875;HTU21D;62209;47.568;7.558;2023-04-23T16:57:31;15.92;74.97
73875;HTU21D;62209;47.568;7.558;2023-04-23T17:12:38;14.33;81.71
73875;HTU21D;62209;47.568;7.558;2023-04-23T17:27:44;13.34;90.81
73875;HTU21D;62209;47.568;7.558;2023-04-23T17:42:49;13.71;91.82
73875;HTU21D;62209;47.568;7.558;2023-04-23T17:57:55;13.94;92.08
73875;HTU21D;62209;47.568;7.558;2023-04-23T18:13:02;13.86;90.93
73875;HTU21D;62209;47.568;7.558;2023-04-23T18:28:11;13.52;92.98
73875;HTU21D;62209;47.568;7.558;2023-04-23T18:43:17;13.05;92.85
73875;HTU21D;62209;47.568;7.558;2023-04-23T18:58:22;12.80;92.14
73875;HTU21D;62209;47.568;7.558;2023-04-23T19:13:28;12.73;90.93
73875;HTU21D;62209;47.568;7.558;2023-04-23T19:28:33;12.63;91.56
73875;HTU21D;62209;47.568;7.558;2023-04-23T19:43:39;12.65;92.30
73875;HTU21D;62209;47.568;7.558;2023-04-23T19:58:45;12.50;91.31
73875;HTU21D;62209;47.568;7.558;2023-04-23T20:13:53;12.60;92.21
73875;HTU21D;62209;47.568;7.558;2023-04-23T20:28:58;12.50;92.89
73875;HTU21D;62209;47.568;7.558;2023-04-23T20:44:04;12.26;92.30
73875;HTU21D;62209;47.568;7.558;2023-04-23T20:59:11;11.73;94.22
73875;HTU21D;62209;47.568;7.558;2023-04-23T21:14:16;11.64;94.17
73875;HTU21D;62209;47.568;7.558;2023-04-23T21:29:22;11.69;94.10
73875;HTU21D;62209;47.568;7.558;2023-04-23T21:44:29;11.56;94.19
73875;HTU21D;62209;47.568;7.558;2023-04-23T21:59:35;11.48;93.36
73875;HTU21D;62209;47.568;7.558;2023-04-23T22:14:40;11.86;90.89
73875;HTU21D;62209;47.568;7.558;2023-04-23T22:29:46;11.81;90.66
73875;HTU21D;62209;47.568;7.558;2023-04-23T22:44:51;11.76;90.65
73875;HTU21D;62209;47.568;7.558;2023-04-23T22:59:57;11.68;90.96
73875;HTU21D;62209;47.568;7.558;2023-04-23T23:15:04;11.51;91.74
73875;HTU21D;62209;47.568;7.558;2023-04-23T23:30:11;11.57;92.04
73875;HTU21D;62209;47.568;7.558;2023-04-23T23:45:16;11.57;91.77
